Kezdőlap
METAR-TAF:

METAR-TAF

Repülőterek :

Gage, Oklahoma, Amerikai Egyesült Államok

földrajzi szélesség: 36-17-48N, földrajzi hosszúság: 099-46-08W, magasság: 677 m

Jelenlegi meteorológiai megfigyelések

A jelentés 46 perccel ezelõtt készült, 15:53 UTC
Déli szél 26 kt széllökések: 38 kt
Hőmérséklet 27°C
Páratartalom 66%
Légköri nyomás 1007 hPa
Látótávolság: 16.1 km
Kevés felhő 2700 lábon

METAR: KGAG 181553Z AUTO 18026G38KT 10SM FEW027 27/20 A2973 RMK AO2 PK WND 18038/1545 SLP035 T02720200 $

Idő: 11:39 (16:39 UTC)


TAF: hiányzik

Meteorológiai megfigyelések és előrejelzések több, mint 4000 repülőtéren (METAR és TAF jelentéseket).

A térképen piros és sárga pontok jelzik az elérhető meteorológiai állomásokat.

Mozgassa az egeret a pont fölött, hogy megjelenjen az állomás neve.

Azután kattintson az időjárási megfigyelések és előrejelzések megtekintéséhez.

A térkép megváltoztatása: kattintson a fekete keresztel jelölt zöld gombra ráközelítéshez, a vonallal jelölt zöld gombra távolításhoz, vagy a zöld nyilakra a szomszédos térképek eléréséhez.


METAR-TAF: